Time;durP1;ratioP1;P1;durP2;ratioP2;P2;SDS_P1;SDS_P2;PMS_P1;PMS_P2;Temp;Humidity;BMP_temperature;BMP_pressure;BME280_temperature;BME280_humidity;BME280_pressure;Samples;Min_cycle;Max_cycle;Signal;HPM_P1;HPM_P2
2023/03/16 00:01:56;;;;;;;;;14.33;10.00;;;;;8.98;69.22;101338.16;5120442;27;45315;-65
2023/03/16 00:04:21;;;;;;;;;9.33;7.00;;;;;8.99;70.43;101327.63;5120312;27;45471;-64
2023/03/16 00:06:46;;;;;;;;;8.00;6.00;;;;;9.02;69.16;101332.88;5119986;27;46248;-65
2023/03/16 00:09:12;;;;;;;;;12.67;8.33;;;;;9.02;71.18;101332.00;5119879;27;45358;-65
2023/03/16 00:11:38;;;;;;;;;9.00;8.33;;;;;9.02;70.00;101332.88;5120110;27;45746;-65
2023/03/16 00:14:03;;;;;;;;;10.67;8.00;;;;;9.00;70.56;101329.41;5118954;27;45809;-64
2023/03/16 00:16:29;;;;;;;;;11.33;8.00;;;;;9.00;70.55;101331.13;5119986;27;45448;-64
2023/03/16 00:18:54;;;;;;;;;9.33;8.33;;;;;8.89;70.54;101304.94;5119664;27;45445;-64
2023/03/16 00:21:20;;;;;;;;;11.67;10.00;;;;;8.92;71.31;101311.91;5119936;27;45335;-64
2023/03/16 00:23:45;;;;;;;;;11.00;7.00;;;;;8.96;71.56;101324.16;5119959;27;45432;-65
2023/03/16 00:26:11;;;;;;;;;7.67;7.33;;;;;8.94;72.42;101311.03;5119617;27;45456;-64
2023/03/16 00:28:37;;;;;;;;;8.67;8.67;;;;;9.01;71.90;101317.13;5119800;27;45211;-64
2023/03/16 00:31:10;;;;;;;;;9.67;7.00;;;;;8.99;71.83;101316.25;5119747;27;45423;-64
2023/03/16 00:33:36;;;;;;;;;10.67;7.33;;;;;8.98;72.73;101315.38;5119720;27;45400;-64
2023/03/16 00:36:03;;;;;;;;;13.33;10.00;;;;;8.73;72.84;101269.16;5119380;27;46733;-64
2023/03/16 00:38:34;;;;;;;;;12.67;10.00;;;;;8.94;72.65;101311.03;5119488;27;45430;-64
2023/03/16 00:41:02;;;;;;;;;11.67;9.67;;;;;8.99;72.88;101310.97;5119651;27;45311;-64
2023/03/16 00:43:29;;;;;;;;;8.67;7.00;;;;;8.91;72.78;101300.53;5119716;27;45503;-64
2023/03/16 00:46:00;;;;;;;;;9.67;9.67;;;;;8.92;72.42;101297.03;5119260;27;45493;-64
2023/03/16 00:48:25;;;;;;;;;11.33;8.33;;;;;8.90;72.43;101290.91;5118718;27;45286;-64
2023/03/16 00:50:53;;;;;;;;;8.00;6.00;;;;;8.61;71.70;101235.97;5119354;27;45334;-64
2023/03/16 00:53:19;;;;;;;;;12.00;10.67;;;;;8.80;72.53;101281.34;5119471;27;45515;-64
2023/03/16 00:55:44;;;;;;;;;10.00;8.33;;;;;8.77;72.63;101279.66;5119073;27;46464;-64
2023/03/16 00:58:13;;;;;;;;;9.00;6.33;;;;;8.80;72.88;101287.50;5119113;27;45380;-64
2023/03/16 01:00:39;;;;;;;;;10.00;10.00;;;;;8.75;73.28;101278.78;5119353;27;45323;-64
2023/03/16 01:03:05;;;;;;;;;10.67;8.33;;;;;8.75;72.95;101280.53;5119302;27;45314;-64
2023/03/16 01:05:32;;;;;;;;;8.00;8.00;;;;;8.67;72.94;101262.19;5118883;27;46121;-64
2023/03/16 01:07:58;;;;;;;;;12.00;9.00;;;;;8.67;73.27;101270.94;5118848;27;45404;-64
2023/03/16 01:10:24;;;;;;;;;8.33;7.00;;;;;8.65;73.77;101264.81;5119164;27;45487;-64
2023/03/16 01:12:49;;;;;;;;;13.67;10.00;;;;;8.63;74.17;101268.38;5119084;27;45340;-64
2023/03/16 01:15:15;;;;;;;;;10.00;8.67;;;;;8.59;73.93;101250.88;5119088;27;47159;-63
2023/03/16 01:17:40;;;;;;;;;11.33;11.00;;;;;8.61;74.00;101251.72;5118888;27;45321;-64
2023/03/16 01:20:11;;;;;;;;;13.00;9.67;;;;;8.62;74.53;101250.88;5118902;27;45305;-64
2023/03/16 01:22:36;;;;;;;;;9.33;8.67;;;;;8.40;74.39;101210.75;5119179;27;45336;-64
2023/03/16 01:25:01;;;;;;;;;13.67;9.00;;;;;8.32;74.09;101198.53;5118635;27;45739;-64
2023/03/16 01:27:27;;;;;;;;;10.00;8.00;;;;;8.57;73.54;101234.25;5118962;27;45536;-64
2023/03/16 01:29:52;;;;;;;;;15.33;9.33;;;;;8.62;74.23;101245.59;5118956;27;45808;-64
2023/03/16 01:32:17;;;;;;;;;11.00;10.67;;;;;8.66;74.18;101245.56;5119212;27;45376;-64
2023/03/16 01:34:43;;;;;;;;;9.00;7.00;;;;;8.61;73.58;101231.63;5118624;27;45441;-63
2023/03/16 01:37:08;;;;;;;;;9.00;7.67;;;;;8.69;74.25;101242.94;5118768;27;45505;-64
2023/03/16 01:39:33;;;;;;;;;10.00;8.00;;;;;8.46;74.34;101208.97;5118621;27;45829;-64
2023/03/16 01:41:59;;;;;;;;;8.67;8.67;;;;;8.67;73.10;101234.19;5118657;27;45389;-64
2023/03/16 01:44:31;;;;;;;;;7.67;6.67;;;;;8.64;72.57;101231.59;5118435;27;46774;-64
2023/03/16 01:46:57;;;;;;;;;12.33;7.67;;;;;8.64;74.32;101238.59;5118514;27;45215;-64
2023/03/16 01:49:32;;;;;;;;;11.00;7.33;;;;;8.59;72.90;101229.88;5118429;27;45315;-64
2023/03/16 01:52:04;;;;;;;;;5.00;5.00;;;;;8.59;73.56;101235.13;5119013;27;45291;-64
2023/03/16 01:54:32;;;;;;;;;11.00;7.33;;;;;8.60;73.71;101229.00;5118521;27;45326;-64
2023/03/16 01:57:07;;;;;;;;;10.00;7.00;;;;;8.55;73.93;101210.66;5118255;27;45220;-64
2023/03/16 01:59:37;;;;;;;;;9.00;7.33;;;;;8.49;73.59;101200.19;5119431;27;45414;-64
2023/03/16 02:02:03;;;;;;;;;8.33;8.33;;;;;8.54;72.78;101208.94;5122383;27;45531;-64
2023/03/16 02:04:43;;;;;;;;;10.67;7.00;;;;;8.49;73.49;101205.44;5121760;27;45652;-64
2023/03/16 02:07:09;;;;;;;;;12.67;8.67;;;;;8.47;74.59;101197.59;5121790;27;45451;-64
2023/03/16 02:09:41;;;;;;;;;10.00;7.00;;;;;8.51;73.68;101201.94;5121957;27;45471;-63
2023/03/16 02:12:16;;;;;;;;;7.67;7.67;;;;;8.23;72.85;101150.50;5122151;27;45669;-64
2023/03/16 02:14:42;;;;;;;;;7.33;6.00;;;;;8.35;74.13;101174.00;5121636;27;46156;-64
2023/03/16 02:17:07;;;;;;;;;7.67;7.67;;;;;8.44;74.33;101178.34;5121840;27;45253;-64
2023/03/16 02:20:10;;;;;;;;;6.00;6.00;;;;;8.47;73.23;101176.59;5121623;27;45299;-64
2023/03/16 02:22:46;;;;;;;;;16.67;9.00;;;;;8.46;73.41;101174.84;5121974;27;45342;-64
2023/03/16 02:25:15;;;;;;;;;6.00;6.00;;;;;8.45;73.48;101167.88;5121524;27;46563;-64
2023/03/16 02:28:12;;;;;;;;;7.75;6.00;;;;;8.42;73.77;101154.72;5121517;27;45341;-64
2023/03/16 02:30:37;;;;;;;;;8.67;8.00;;;;;8.43;73.04;101153.84;5121711;27;45441;-64
2023/03/16 02:33:03;;;;;;;;;13.67;8.33;;;;;8.43;72.48;101155.59;5121749;27;45383;-64
2023/03/16 02:35:30;;;;;;;;;6.00;5.50;;;;;8.34;72.90;101141.66;5121173;27;46470;-64
2023/03/16 02:37:55;;;;;;;;;10.67;9.67;;;;;8.34;73.06;101144.28;5121422;27;45215;-64
2023/03/16 02:40:24;;;;;;;;;12.67;7.33;;;;;8.26;72.05;101122.47;5121083;27;45223;-64
2023/03/16 02:43:04;;;;;;;;;9.00;7.67;;;;;8.26;72.73;101125.09;5121591;27;45496;-64
2023/03/16 02:45:44;;;;;;;;;8.75;6.50;;;;;8.28;72.52;101130.34;5121235;27;45828;-64
2023/03/16 02:48:16;;;;;;;;;11.33;7.67;;;;;8.28;71.97;101125.97;5121182;27;45379;-64
2023/03/16 02:50:47;;;;;;;;;9.67;8.67;;;;;8.28;72.89;101123.34;5121337;27;45306;-64
2023/03/16 02:53:14;;;;;;;;;11.25;7.00;;;;;8.27;72.04;101116.34;5121541;27;45525;-64
2023/03/16 02:55:39;;;;;;;;;9.00;7.33;;;;;8.31;71.80;101133.81;5120969;27;47214;-64
2023/03/16 02:58:04;;;;;;;;;10.00;8.33;;;;;8.27;72.01;101125.97;5121246;27;45295;-64
2023/03/16 03:00:31;;;;;;;;;9.67;5.67;;;;;8.05;73.12;101080.69;5121211;27;45840;-64
2023/03/16 03:02:57;;;;;;;;;9.00;9.00;;;;;8.35;72.99;101121.53;5121401;27;45611;-64
2023/03/16 03:05:22;;;;;;;;;7.67;7.67;;;;;8.14;72.36;101070.13;5120764;27;45660;-64
2023/03/16 03:07:47;;;;;;;;;9.00;6.33;;;;;8.35;72.63;101105.78;5120560;27;45610;-64
2023/03/16 03:10:13;;;;;;;;;7.67;7.67;;;;;8.38;72.27;101118.91;5121129;27;45417;-64
2023/03/16 03:12:38;;;;;;;;;10.25;7.25;;;;;8.36;71.84;101107.53;5121116;27;45406;-64
2023/03/16 03:15:04;;;;;;;;;7.33;7.33;;;;;8.37;71.41;101098.78;5121034;27;45533;-64
2023/03/16 03:17:29;;;;;;;;;8.67;8.67;;;;;8.31;71.64;101083.97;5120825;27;45309;-64
2023/03/16 03:20:01;;;;;;;;;9.33;9.00;;;;;8.32;70.96;101080.47;5120611;27;45880;-64
2023/03/16 03:22:26;;;;;;;;;7.25;6.00;;;;;8.28;70.84;101086.63;5121292;27;45421;-64
2023/03/16 03:24:52;;;;;;;;;9.67;8.67;;;;;8.27;71.13;101077.00;5120498;27;46645;-64
2023/03/16 03:27:19;;;;;;;;;9.00;5.33;;;;;8.31;70.72;101080.50;5120671;27;45267;-64
2023/03/16 03:29:44;;;;;;;;;7.00;6.67;;;;;8.31;70.84;101077.88;5120816;27;45339;-64
2023/03/16 03:32:10;;;;;;;;;10.67;6.67;;;;;8.30;70.92;101066.47;5120811;27;45504;-64
2023/03/16 03:34:36;;;;;;;;;8.33;6.00;;;;;8.32;70.01;101074.34;5119871;27;47243;-64
2023/03/16 03:37:02;;;;;;;;;9.00;6.00;;;;;8.29;70.32;101062.13;5120532;27;45326;-64
2023/03/16 03:39:28;;;;;;;;;6.67;6.67;;;;;8.24;70.30;101060.44;5120569;27;45375;-64
2023/03/16 03:41:53;;;;;;;;;10.00;7.67;;;;;8.29;69.31;101070.00;5120748;27;45342;-64
2023/03/16 03:44:23;;;;;;;;;9.00;9.00;;;;;8.31;70.54;101075.25;5120105;27;45424;-64
2023/03/16 03:46:50;;;;;;;;;6.00;6.00;;;;;8.32;70.86;101059.47;5120581;27;45250;-64
2023/03/16 03:49:16;;;;;;;;;8.33;6.00;;;;;8.38;70.06;101061.19;5120224;27;45375;-64
2023/03/16 03:51:41;;;;;;;;;10.50;7.25;;;;;8.33;69.57;101063.81;5120574;27;45395;-64
2023/03/16 03:54:07;;;;;;;;;10.50;6.25;;;;;8.33;69.81;101074.31;5120097;27;46316;-64
2023/03/16 03:56:32;;;;;;;;;10.33;7.33;;;;;8.33;69.74;101069.06;5120093;27;45413;-64
2023/03/16 03:58:58;;;;;;;;;10.00;6.00;;;;;8.28;69.88;101063.00;5120369;27;45442;-64
2023/03/16 04:01:24;;;;;;;;;6.67;4.67;;;;;8.37;69.84;101069.94;5120498;27;45353;-64
2023/03/16 04:03:49;;;;;;;;;5.00;4.00;;;;;8.36;69.16;101065.56;5120064;27;45374;-64
2023/03/16 04:06:15;;;;;;;;;8.33;6.00;;;;;8.38;69.72;101069.06;5120081;27;45196;-64
2023/03/16 04:08:40;;;;;;;;;10.00;7.75;;;;;8.37;69.45;101068.16;5119852;27;45242;-64
2023/03/16 04:11:06;;;;;;;;;7.00;7.00;;;;;8.34;69.06;101049.84;5120574;27;45284;-64
2023/03/16 04:13:31;;;;;;;;;10.67;9.67;;;;;8.32;68.81;101042.84;5119673;27;46416;-64
2023/03/16 04:15:58;;;;;;;;;8.33;5.67;;;;;8.32;68.64;101053.34;5119883;27;45328;-64
2023/03/16 04:18:23;;;;;;;;;8.00;7.67;;;;;8.27;68.21;101034.16;5120086;27;45282;-64
2023/03/16 04:20:49;;;;;;;;;5.67;5.00;;;;;8.25;67.71;101035.91;5119808;27;45514;-64
2023/03/16 04:23:15;;;;;;;;;6.25;4.00;;;;;8.25;68.08;101031.56;5119087;27;46139;-64
2023/03/16 04:25:41;;;;;;;;;3.67;3.67;;;;;8.27;67.34;101028.91;5119648;27;45387;-64
2023/03/16 04:28:06;;;;;;;;;5.33;5.33;;;;;8.24;67.15;101037.69;5119731;27;45326;-64
2023/03/16 04:30:32;;;;;;;;;8.67;5.67;;;;;8.15;66.74;101014.16;5120079;27;45384;-64
2023/03/16 04:32:57;;;;;;;;;7.33;4.67;;;;;8.16;66.57;101022.03;5119459;27;45504;-64
2023/03/16 04:35:23;;;;;;;;;4.00;4.00;;;;;8.08;66.13;101029.06;5119638;27;45488;-64
2023/03/16 04:37:48;;;;;;;;;5.50;4.00;;;;;8.02;65.79;101011.63;5119739;27;45757;-64
2023/03/16 04:40:18;;;;;;;;;4.67;4.33;;;;;7.99;66.51;101010.78;5119707;27;45419;-64
2023/03/16 04:42:45;;;;;;;;;4.33;3.33;;;;;8.05;66.24;101023.00;5119405;27;47172;-64
2023/03/16 04:45:11;;;;;;;;;3.25;3.25;;;;;7.95;65.37;101016.94;5119290;27;45499;-64
2023/03/16 04:47:37;;;;;;;;;8.00;5.00;;;;;7.99;64.83;101029.16;5119545;27;45388;-64
2023/03/16 04:50:04;;;;;;;;;6.00;4.00;;;;;7.92;65.56;101024.84;5119530;27;45413;-64
2023/03/16 04:52:30;;;;;;;;;4.00;4.00;;;;;7.85;65.70;101021.38;5119225;27;46522;-64
2023/03/16 04:54:56;;;;;;;;;38.67;34.33;;;;;7.75;65.55;101004.81;5119429;27;45234;-64
2023/03/16 04:57:22;;;;;;;;;10.00;5.67;;;;;7.72;65.33;101002.22;5118655;27;45368;-64
2023/03/16 04:59:47;;;;;;;;;5.25;4.50;;;;;7.79;65.21;101017.03;5119169;27;45328;-63
2023/03/16 05:02:13;;;;;;;;;5.00;4.00;;;;;7.73;65.00;101009.22;5119073;27;46946;-64
2023/03/16 05:04:38;;;;;;;;;4.00;4.00;;;;;7.78;64.97;101020.53;5119006;27;45408;-64
2023/03/16 05:07:04;;;;;;;;;7.33;5.33;;;;;7.74;65.06;101008.34;5117613;27;45489;-64
2023/03/16 05:09:29;;;;;;;;;5.67;4.67;;;;;7.73;65.28;101006.59;5119280;27;45338;-64
2023/03/16 05:11:54;;;;;;;;;9.33;7.67;;;;;7.75;64.95;101002.22;5118881;27;45406;-64
2023/03/16 05:14:20;;;;;;;;;5.00;5.00;;;;;7.72;65.05;100998.75;5119140;27;45463;-64
2023/03/16 05:16:45;;;;;;;;;8.67;6.00;;;;;7.78;64.33;101010.03;5119059;27;45240;-64
2023/03/16 05:19:11;;;;;;;;;11.33;6.00;;;;;7.79;64.48;101010.94;5119109;27;45404;-63
2023/03/16 05:21:37;;;;;;;;;18.00;18.00;;;;;7.84;64.83;101022.25;5118634;27;47124;-64
2023/03/16 05:24:06;;;;;;;;;10.67;6.00;;;;;7.86;64.91;101015.25;5118876;27;45390;-64
2023/03/16 05:26:32;;;;;;;;;8.00;5.00;;;;;7.86;64.64;101012.63;5119035;27;45255;-64
2023/03/16 05:28:58;;;;;;;;;7.33;5.33;;;;;7.78;64.74;101006.56;5117767;27;45584;-64
2023/03/16 05:31:27;;;;;;;;;6.33;6.00;;;;;7.82;64.80;101010.91;5118608;27;45390;-64
2023/03/16 05:33:53;;;;;;;;;12.00;7.33;;;;;7.78;64.67;101004.81;5118184;27;45387;-64
2023/03/16 05:36:19;;;;;;;;;7.00;5.67;;;;;7.80;64.24;101002.19;5118660;27;45217;-64
2023/03/16 05:38:45;;;;;;;;;4.67;4.67;;;;;7.76;64.60;101005.72;5119270;27;45273;-64
2023/03/16 05:41:10;;;;;;;;;8.33;5.67;;;;;7.67;64.83;100989.16;5118507;27;46377;-64
2023/03/16 05:43:35;;;;;;;;;7.33;7.00;;;;;7.73;64.90;101005.75;5118830;27;45422;-64
2023/03/16 05:46:01;;;;;;;;;7.00;5.67;;;;;7.70;64.90;100995.25;5118786;27;45350;-64
2023/03/16 05:48:26;;;;;;;;;8.00;7.00;;;;;7.63;64.67;100991.81;5118927;27;45191;-64
2023/03/16 05:50:52;;;;;;;;;10.00;6.00;;;;;7.61;64.60;100989.22;5118405;27;45591;-64
2023/03/16 05:53:18;;;;;;;;;7.00;5.00;;;;;7.60;64.70;100990.09;5118528;27;45554;-65
2023/03/16 05:55:43;;;;;;;;;7.75;4.50;;;;;7.57;64.74;100987.50;5118715;27;45182;-64
2023/03/16 05:58:08;;;;;;;;;8.33;5.00;;;;;7.59;64.88;100997.97;5117302;27;45540;-64
2023/03/16 06:00:34;;;;;;;;;9.00;5.00;;;;;7.56;64.37;100992.75;5118207;27;46458;-64
2023/03/16 06:03:00;;;;;;;;;5.00;5.00;;;;;7.50;64.95;100991.88;5118580;27;45364;-64
2023/03/16 06:05:27;;;;;;;;;14.67;7.67;;;;;7.53;63.90;101001.47;5118317;27;45431;-64
2023/03/16 06:07:53;;;;;;;;;6.00;5.67;;;;;7.58;64.23;101001.44;5118533;27;45294;-64
2023/03/16 06:10:19;;;;;;;;;9.67;6.00;;;;;7.60;63.51;100991.84;5118051;27;45468;-64
2023/03/16 06:12:44;;;;;;;;;14.33;14.33;;;;;7.51;64.05;100982.31;5117741;27;45257;-64
2023/03/16 06:15:10;;;;;;;;;7.00;6.00;;;;;7.54;63.58;100984.00;5118534;27;45377;-63
2023/03/16 06:17:37;;;;;;;;;10.00;8.67;;;;;7.56;63.09;100990.13;5118268;27;45472;-63
2023/03/16 06:20:10;;;;;;;;;7.67;5.00;;;;;7.56;63.34;100996.22;5117821;27;45426;-63
2023/03/16 06:22:40;;;;;;;;;8.33;6.00;;;;;7.54;63.53;100995.38;5117783;27;45587;-63
2023/03/16 06:25:07;;;;;;;;;9.25;5.00;;;;;7.55;62.96;100986.66;5117843;27;45451;-63
2023/03/16 06:27:32;;;;;;;;;3.67;3.67;;;;;7.60;63.32;100990.09;5118126;27;45460;-63
2023/03/16 06:29:58;;;;;;;;;7.00;3.67;;;;;7.62;62.60;101003.19;5118018;27;45866;-63
2023/03/16 06:32:23;;;;;;;;;2.67;2.00;;;;;7.60;62.42;100999.72;5115595;27;45376;-63
2023/03/16 06:34:48;;;;;;;;;5.67;4.33;;;;;7.68;62.98;101000.50;5103056;27;45441;-63
2023/03/16 06:37:13;;;;;;;;;6.67;5.67;;;;;7.71;62.60;100994.38;5117614;27;45589;-66
2023/03/16 06:39:39;;;;;;;;;10.00;5.00;;;;;7.73;62.30;100987.41;5116764;27;46554;-65
2023/03/16 06:42:04;;;;;;;;;9.00;7.67;;;;;7.84;62.38;100996.03;5117803;27;45403;-63
2023/03/16 06:44:30;;;;;;;;;10.33;5.00;;;;;7.89;62.13;101004.75;5117894;27;45325;-64
2023/03/16 06:46:56;;;;;;;;;7.00;5.33;;;;;7.87;62.16;101005.63;5120719;27;45530;-63
2023/03/16 06:49:21;;;;;;;;;5.00;5.00;;;;;7.85;62.33;100998.63;5121279;27;46681;-63
2023/03/16 06:51:47;;;;;;;;;8.33;6.00;;;;;7.84;62.91;101002.16;5121287;27;45434;-65
2023/03/16 06:54:12;;;;;;;;;6.00;5.00;;;;;7.95;62.62;101009.94;5121217;27;45285;-65
2023/03/16 06:56:38;;;;;;;;;7.67;5.00;;;;;7.94;62.17;100997.69;5121327;27;45413;-65
2023/03/16 06:59:03;;;;;;;;;6.33;5.00;;;;;7.96;62.07;101002.97;5120638;27;46650;-63
2023/03/16 07:01:28;;;;;;;;;5.67;4.67;;;;;8.03;61.99;101004.66;5121043;27;45260;-64
2023/03/16 07:03:54;;;;;;;;;6.00;6.00;;;;;8.07;61.79;100989.75;5121050;27;45299;-64
2023/03/16 07:06:19;;;;;;;;;3.33;2.33;;;;;8.14;62.50;100996.69;5120586;27;45550;-65
2023/03/16 07:08:44;;;;;;;;;6.00;6.00;;;;;8.24;61.79;100994.84;5119960;27;45439;-65
2023/03/16 07:11:10;;;;;;;;;7.00;5.33;;;;;8.10;61.73;100960.88;5120665;27;45391;-65
2023/03/16 07:13:35;;;;;;;;;11.00;5.00;;;;;8.40;61.73;101003.44;5121012;27;45824;-65
2023/03/16 07:16:03;;;;;;;;;6.00;5.33;;;;;8.50;61.76;101016.47;5120894;27;45599;-64
2023/03/16 07:18:30;;;;;;;;;5.00;5.00;;;;;8.60;61.69;101012.03;5120688;27;46411;-65
2023/03/16 07:20:56;;;;;;;;;5.67;5.67;;;;;8.62;61.49;100997.13;5120220;27;45177;-65
2023/03/16 07:23:23;;;;;;;;;7.00;5.00;;;;;8.73;61.01;101004.00;5119537;27;45339;-65
2023/03/16 07:25:48;;;;;;;;;7.33;5.00;;;;;8.82;61.53;100998.66;5120030;27;45625;-65
2023/03/16 07:28:13;;;;;;;;;9.00;5.00;;;;;8.97;60.76;100995.84;5120399;27;46192;-65
2023/03/16 07:30:39;;;;;;;;;9.00;7.00;;;;;9.00;60.88;100982.69;5120670;27;45232;-65
2023/03/16 07:33:04;;;;;;;;;7.00;6.00;;;;;9.21;59.49;100999.06;5120712;27;45548;-65
2023/03/16 07:35:30;;;;;;;;;6.33;6.33;;;;;9.26;60.14;100997.22;5121032;27;45326;-65
2023/03/16 07:37:56;;;;;;;;;5.00;3.33;;;;;9.23;58.75;100985.00;5120409;27;45611;-65
2023/03/16 07:40:22;;;;;;;;;4.67;4.67;;;;;9.38;59.63;100996.19;5120489;27;45340;-65
2023/03/16 07:42:47;;;;;;;;;5.00;5.00;;;;;9.48;58.70;100994.31;5120761;27;45401;-65
2023/03/16 07:45:13;;;;;;;;;9.67;9.67;;;;;9.51;58.07;100989.88;5120646;27;45413;-65
2023/03/16 07:47:38;;;;;;;;;4.00;4.00;;;;;9.65;58.07;101010.69;5119367;27;45383;-64
2023/03/16 07:50:05;;;;;;;;;3.50;2.25;;;;;9.69;57.35;101012.41;5120088;27;45401;-64
2023/03/16 07:52:30;;;;;;;;;5.00;3.00;;;;;9.72;56.44;101011.50;5120259;27;45346;-65
2023/03/16 07:54:55;;;;;;;;;4.00;3.67;;;;;9.80;57.24;101006.09;5120600;27;45308;-65
2023/03/16 07:57:21;;;;;;;;;3.50;3.50;;;;;9.88;55.73;100989.31;5118746;27;46151;-65
2023/03/16 07:59:47;;;;;;;;;5.00;3.00;;;;;10.05;55.28;100998.69;5120039;27;45509;-64
2023/03/16 08:02:14;;;;;;;;;10.33;10.33;;;;;10.12;55.40;100984.53;5120214;27;45456;-65
2023/03/16 08:04:41;;;;;;;;;4.67;4.33;;;;;10.27;54.46;100988.69;5120167;27;45489;-65
2023/03/16 08:07:08;;;;;;;;;7.67;4.33;;;;;10.45;54.21;100995.41;5119589;27;47223;-65
2023/03/16 08:09:34;;;;;;;;;1.25;0.00;;;;;10.56;54.35;100989.97;5118929;27;45340;-65
2023/03/16 08:12:04;;;;;;;;;4.33;2.67;;;;;10.72;53.07;100986.13;5120062;27;45303;-65
2023/03/16 08:14:33;;;;;;;;;6.50;5.50;;;;;10.85;53.07;100992.03;5120125;27;45284;-65
2023/03/16 08:16:59;;;;;;;;;13.33;11.00;;;;;10.88;53.20;100980.56;5119499;27;46319;-65
2023/03/16 08:19:25;;;;;;;;;4.00;4.00;;;;;11.02;53.08;100994.28;5119748;27;45413;-65
2023/03/16 08:21:50;;;;;;;;;6.00;4.00;;;;;11.16;52.61;100986.09;5119529;27;45561;-65
2023/03/16 08:24:15;;;;;;;;;5.00;3.00;;;;;11.43;53.37;100983.75;5119849;27;45397;-65
2023/03/16 08:26:41;;;;;;;;;3.00;2.00;;;;;11.87;52.52;100981.00;5119955;27;45345;-65
2023/03/16 08:29:06;;;;;;;;;3.67;3.00;;;;;12.15;51.47;100994.41;5119719;27;45428;-65
2023/03/16 08:31:33;;;;;;;;;5.00;5.00;;;;;12.57;51.48;100993.31;5120102;27;45583;-65
2023/03/16 08:33:59;;;;;;;;;5.00;4.00;;;;;12.71;49.68;100972.69;5118994;27;45776;-65
2023/03/16 08:36:26;;;;;;;;;7.00;6.00;;;;;12.69;49.12;100970.09;5119507;27;45370;-65
2023/03/16 08:38:53;;;;;;;;;6.00;3.67;;;;;12.84;50.19;100971.41;5119087;27;45465;-65
2023/03/16 08:41:19;;;;;;;;;5.50;4.50;;;;;13.34;48.83;100938.22;5119313;27;45441;-65
2023/03/16 08:43:45;;;;;;;;;3.25;3.25;;;;;14.34;46.43;100972.00;5119958;27;45434;-65
2023/03/16 08:46:12;;;;;;;;;7.00;6.00;;;;;14.64;46.69;100956.00;5119373;27;46366;-65
2023/03/16 08:48:39;;;;;;;;;6.00;4.00;;;;;15.45;45.27;100978.56;5119419;27;45480;-65
2023/03/16 08:51:05;;;;;;;;;3.50;3.00;;;;;15.26;44.88;100972.22;5119637;27;45453;-65
2023/03/16 08:53:31;;;;;;;;;6.00;5.33;;;;;14.75;43.39;100955.59;5119169;27;45321;-65
2023/03/16 08:56:07;;;;;;;;;7.00;4.75;;;;;14.49;45.40;100986.50;5118808;27;46569;-65
2023/03/16 08:58:34;;;;;;;;;4.25;3.50;;;;;14.40;44.95;100977.09;5135216;27;45325;-65
2023/03/16 09:01:01;;;;;;;;;3.00;3.00;;;;;14.69;44.43;100983.19;5119276;27;45305;-65
2023/03/16 09:03:26;;;;;;;;;4.25;3.00;;;;;14.85;43.36;100979.97;5119451;27;45552;-65
2023/03/16 09:05:52;;;;;;;;;3.00;3.00;;;;;15.04;43.39;100985.44;5118839;27;46421;-65
2023/03/16 09:08:18;;;;;;;;;3.50;2.00;;;;;15.37;41.75;100991.25;5118396;27;45683;-65
2023/03/16 09:10:43;;;;;;;;;3.50;2.00;;;;;15.48;41.33;100996.13;5119012;27;45411;-65
2023/03/16 09:13:09;;;;;;;;;2.00;2.00;;;;;15.42;41.83;100983.09;5119442;27;45432;-65
2023/03/16 09:15:35;;;;;;;;;7.00;2.25;;;;;15.65;41.39;100995.47;5119016;27;45670;-65
2023/03/16 09:18:02;;;;;;;;;5.50;4.00;;;;;15.61;41.07;100993.84;5118706;27;45463;-65
2023/03/16 09:20:28;;;;;;;;;3.00;2.67;;;;;15.71;40.89;100994.38;5118682;27;45435;-65
2023/03/16 09:22:54;;;;;;;;;3.25;3.00;;;;;15.81;41.33;100990.44;5119085;27;45317;-65
2023/03/16 09:25:20;;;;;;;;;4.67;4.33;;;;;15.91;41.83;100994.44;5118606;27;45592;-65
2023/03/16 09:27:46;;;;;;;;;3.00;2.25;;;;;16.02;40.62;100986.91;5118573;27;45400;-65
2023/03/16 09:30:12;;;;;;;;;3.25;3.25;;;;;16.15;40.01;100954.53;5118959;27;45420;-65
2023/03/16 09:32:37;;;;;;;;;4.50;2.75;;;;;16.85;40.59;100973.59;5118923;27;45508;-65
2023/03/16 09:35:07;;;;;;;;;3.75;2.00;;;;;17.41;40.09;100974.56;5118563;27;45731;-65
2023/03/16 09:37:33;;;;;;;;;5.00;2.00;;;;;17.77;38.81;100976.38;5118393;27;45429;-66
2023/03/16 09:39:58;;;;;;;;;3.25;2.00;;;;;17.88;37.37;100965.22;5118542;27;45524;-65
2023/03/16 09:42:45;;;;;;;;;2.00;2.00;;;;;18.00;37.62;100963.78;5119025;27;45246;-65
2023/03/16 09:45:33;;;;;;;;;4.00;2.00;;;;;17.89;38.33;100964.25;5118644;27;45333;-65
2023/03/16 09:48:03;;;;;;;;;3.00;2.00;;;;;18.09;38.47;100963.28;5118288;27;45343;-65
2023/03/16 09:50:37;;;;;;;;;2.75;2.75;;;;;18.40;37.39;100962.59;5118450;27;45397;-65
2023/03/16 09:53:24;;;;;;;;;4.50;2.00;;;;;18.49;37.16;100949.69;5118324;27;45390;-65
2023/03/16 09:55:54;;;;;;;;;1.25;1.25;;;;;18.32;36.68;100951.44;5117993;27;46578;-65
2023/03/16 09:58:21;;;;;;;;;3.33;2.67;;;;;18.17;36.59;100958.44;5118032;27;45314;-65
2023/03/16 10:01:09;;;;;;;;;2.00;2.00;;;;;18.19;36.93;100945.88;5118191;27;45401;-65
2023/03/16 10:04:00;;;;;;;;;2.00;2.00;;;;;17.84;35.72;100940.50;5118477;27;45348;-65
2023/03/16 10:06:27;;;;;;;;;1.50;1.50;;;;;17.82;37.08;100939.75;5118073;27;46458;-66
2023/03/16 10:09:06;;;;;;;;;2.00;2.00;;;;;17.85;37.69;100923.59;5116992;27;45541;-65
2023/03/16 10:11:40;;;;;;;;;1.50;1.50;;;;;17.91;36.98;100935.78;5117702;27;45476;-66
2023/03/16 10:14:40;;;;;;;;;2.00;2.00;;;;;17.89;36.52;100937.63;5118326;27;45283;-65
2023/03/16 10:17:20;;;;;;;;;3.50;2.00;;;;;18.22;36.83;100932.41;5118189;27;45449;-66
2023/03/16 10:20:07;;;;;;;;;1.50;1.50;;;;;18.60;36.77;100929.53;5116099;27;45398;-65
2023/03/16 10:22:36;;;;;;;;;4.00;2.00;;;;;18.75;36.49;100916.31;5121706;27;45374;-65
2023/03/16 10:25:17;;;;;;;;;6.67;4.00;;;;;18.71;36.57;100904.09;5121930;27;45307;-65
2023/03/16 10:27:44;;;;;;;;;3.25;1.75;;;;;18.80;36.31;100893.75;5121486;27;46105;-65
2023/03/16 10:30:20;;;;;;;;;3.00;1.50;;;;;18.82;36.35;100900.81;5121295;27;45626;-65
2023/03/16 10:32:48;;;;;;;;;3.00;3.00;;;;;18.75;36.32;100893.16;5121933;27;46060;-65
2023/03/16 10:35:50;;;;;;;;;3.00;3.00;;;;;18.26;34.95;100893.13;5121357;27;45403;-65
2023/03/16 10:38:39;;;;;;;;;2.50;1.00;;;;;17.88;35.34;100893.28;5121233;27;45556;-65
2023/03/16 10:41:16;;;;;;;;;1.00;1.00;;;;;17.51;36.12;100895.97;5121379;27;45372;-65
2023/03/16 10:43:42;;;;;;;;;2.00;1.25;;;;;17.53;37.03;100901.25;5121535;27;45318;-65
2023/03/16 10:46:10;;;;;;;;;4.75;1.50;;;;;17.37;36.66;100909.13;5121769;27;45317;-65
2023/03/16 10:48:37;;;;;;;;;2.25;2.00;;;;;17.34;36.72;100918.13;5120961;27;46362;-65
2023/03/16 10:51:09;;;;;;;;;3.25;2.00;;;;;17.17;36.05;100902.09;5121014;27;45477;-65
2023/03/16 10:53:39;;;;;;;;;4.00;1.00;;;;;17.21;37.30;100901.88;5121340;27;45330;-66
2023/03/16 10:56:19;;;;;;;;;1.25;1.00;;;;;17.15;36.82;100885.34;5121534;27;45437;-65
2023/03/16 10:58:45;;;;;;;;;3.75;1.25;;;;;17.10;37.71;100885.56;5120857;27;47592;-65
2023/03/16 11:01:25;;;;;;;;;3.00;1.00;;;;;16.95;37.43;100878.28;5121076;27;45376;-66
2023/03/16 11:03:54;;;;;;;;;2.00;2.00;;;;;17.04;37.47;100892.03;5121043;27;45325;-65
2023/03/16 11:06:31;;;;;;;;;2.00;2.00;;;;;16.86;37.70;100885.75;5121390;27;45464;-65
2023/03/16 11:09:07;;;;;;;;;1.50;1.50;;;;;16.67;37.58;100882.22;5120280;27;45695;-65
2023/03/16 11:11:34;;;;;;;;;2.00;2.00;;;;;16.48;38.33;100860.94;5120539;27;45475;-66
2023/03/16 11:14:03;;;;;;;;;6.33;5.00;;;;;16.46;38.78;100860.16;5121185;27;45361;-65
2023/03/16 11:16:47;;;;;;;;;4.50;2.00;;;;;16.47;39.27;100888.47;5121080;27;45520;-65
2023/03/16 11:19:44;;;;;;;;;1.50;1.25;;;;;16.24;39.29;100869.09;5120623;27;46211;-70
2023/03/16 11:22:16;;;;;;;;;3.75;2.00;;;;;15.80;39.58;100826.75;5120031;27;45258;-65
2023/03/16 11:25:05;;;;;;;;;1.50;1.50;;;;;15.83;39.97;100858.50;5120822;27;45357;-65
2023/03/16 11:28:02;;;;;;;;;6.25;1.75;;;;;15.64;40.41;100850.38;5121095;27;45453;-65
2023/03/16 11:30:34;;;;;;;;;4.75;2.75;;;;;15.48;41.32;100859.03;5120692;27;45645;-65
2023/03/16 11:33:00;;;;;;;;;3.50;2.00;;;;;15.42;41.14;100855.75;5120429;27;45281;-65
2023/03/16 11:35:35;;;;;;;;;1.25;1.25;;;;;15.30;41.06;100862.41;5119564;27;45470;-65